createdAt,value
2019-02-16T00:00:42.905Z,13.48
2019-02-16T00:03:13.502Z,14.35
2019-02-16T00:05:43.030Z,13.73
2019-02-16T00:08:15.217Z,13.53
2019-02-16T00:10:47.729Z,13.45
2019-02-16T00:13:18.997Z,12.10
2019-02-16T00:18:19.503Z,12.10
2019-02-16T00:20:50.237Z,12.53
2019-02-16T00:23:21.134Z,12.93
2019-02-16T00:25:52.158Z,12.20
2019-02-16T00:28:23.170Z,12.30
2019-02-16T00:30:53.703Z,12.93
2019-02-16T00:33:23.062Z,11.78
2019-02-16T00:35:52.251Z,12.58
2019-02-16T00:38:21.526Z,13.00
2019-02-16T00:40:50.703Z,12.63
2019-02-16T00:43:19.950Z,11.80
2019-02-16T00:45:49.133Z,11.05
2019-02-16T00:48:18.317Z,11.63
2019-02-16T00:50:47.585Z,12.60
2019-02-16T00:53:16.779Z,12.55
2019-02-16T00:55:45.938Z,13.00
2019-02-16T00:58:15.140Z,12.55
2019-02-16T01:00:44.417Z,12.05
2019-02-16T01:03:13.593Z,12.60
2019-02-16T01:05:42.810Z,12.10
2019-02-16T01:08:12.078Z,12.55
2019-02-16T01:10:41.396Z,11.48
2019-02-16T01:13:10.572Z,11.03
2019-02-16T01:15:39.835Z,11.97
2019-02-16T01:18:09.316Z,12.18
2019-02-16T01:20:38.640Z,12.23
2019-02-16T01:23:07.835Z,12.37
2019-02-16T01:25:37.010Z,12.47
2019-02-16T01:28:06.175Z,12.18
2019-02-16T01:30:35.423Z,12.33
2019-02-16T01:33:05.108Z,12.13
2019-02-16T01:35:34.305Z,13.80
2019-02-16T01:38:03.664Z,12.50
2019-02-16T01:40:32.929Z,12.05
2019-02-16T01:43:02.201Z,13.45
2019-02-16T01:45:31.507Z,11.95
2019-02-16T01:48:00.760Z,11.20
2019-02-16T01:50:30.038Z,12.58
2019-02-16T01:52:59.245Z,11.97
2019-02-16T01:55:28.545Z,12.47
2019-02-16T01:57:58.888Z,12.55
2019-02-16T02:00:28.083Z,12.88
2019-02-16T02:02:57.377Z,12.10
2019-02-16T02:05:26.644Z,12.70
2019-02-16T02:07:56.015Z,11.93
2019-02-16T02:10:25.288Z,12.78
2019-02-16T02:12:54.894Z,13.10
2019-02-16T02:15:24.147Z,12.55
2019-02-16T02:17:55.960Z,12.03
2019-02-16T02:20:25.262Z,13.30
2019-02-16T02:22:54.458Z,12.53
2019-02-16T02:25:23.745Z,12.60
2019-02-16T02:27:53.008Z,12.13
2019-02-16T02:30:22.278Z,12.23
2019-02-16T02:32:51.588Z,11.85
2019-02-16T02:35:20.815Z,11.30
2019-02-16T02:37:50.113Z,11.90
2019-02-16T02:40:19.401Z,12.03
2019-02-16T02:42:48.696Z,11.63
2019-02-16T02:45:17.949Z,11.67
2019-02-16T02:47:47.164Z,11.68
2019-02-16T02:50:16.461Z,11.28
2019-02-16T02:52:45.729Z,11.68
2019-02-16T02:55:14.990Z,12.77
2019-02-16T02:57:44.295Z,12.45
2019-02-16T03:00:13.556Z,11.70
2019-02-16T03:02:42.905Z,12.03
2019-02-16T03:05:12.259Z,12.23
2019-02-16T03:07:41.541Z,12.58
2019-02-16T03:10:10.814Z,12.10
2019-02-16T03:12:40.217Z,12.43
2019-02-16T03:15:09.513Z,12.00
2019-02-16T03:17:38.750Z,12.55
2019-02-16T03:20:08.014Z,12.50
2019-02-16T03:23:14.522Z,13.68
2019-02-16T03:25:53.136Z,12.07
2019-02-16T03:28:43.238Z,12.58
2019-02-16T03:31:32.117Z,12.65
2019-02-16T03:34:04.745Z,12.43
2019-02-16T03:37:01.273Z,12.65
2019-02-16T03:39:30.901Z,12.47
2019-02-16T03:42:00.102Z,14.05
2019-02-16T03:44:29.460Z,13.48
2019-02-16T03:46:58.760Z,12.78
2019-02-16T03:49:28.026Z,13.68
2019-02-16T03:51:57.296Z,13.28
2019-02-16T03:54:26.506Z,12.95
2019-02-16T03:56:55.811Z,12.40
2019-02-16T03:59:25.090Z,13.60
2019-02-16T04:01:54.362Z,13.00
2019-02-16T04:04:23.667Z,12.80
2019-02-16T04:06:52.960Z,13.45
2019-02-16T04:09:22.242Z,13.13
2019-02-16T04:11:54.642Z,14.18
2019-02-16T04:14:23.846Z,12.43
2019-02-16T04:16:53.174Z,13.32
2019-02-16T04:19:22.432Z,13.62
2019-02-16T04:21:51.609Z,13.88
2019-02-16T04:24:22.573Z,14.37
2019-02-16T04:26:52.992Z,13.62
2019-02-16T04:29:22.215Z,13.72
2019-02-16T04:31:51.413Z,14.50
2019-02-16T04:34:20.575Z,13.87
2019-02-16T04:36:49.775Z,14.10
2019-02-16T04:39:18.952Z,15.00
2019-02-16T04:41:48.213Z,14.30
2019-02-16T04:44:17.553Z,12.82
2019-02-16T04:46:47.051Z,12.90
2019-02-16T04:49:16.241Z,14.80
2019-02-16T04:51:45.436Z,13.80
2019-02-16T04:54:14.624Z,14.10
2019-02-16T04:56:43.797Z,14.13
2019-02-16T04:59:12.985Z,13.93
2019-02-16T05:01:42.154Z,14.00
2019-02-16T05:04:11.332Z,14.15
2019-02-16T05:06:40.519Z,13.62
2019-02-16T05:09:10.856Z,13.82
2019-02-16T05:11:40.048Z,15.00
2019-02-16T05:14:09.320Z,14.70
2019-02-16T05:16:38.555Z,13.65
2019-02-16T05:19:07.758Z,14.40
2019-02-16T05:21:37.041Z,13.08
2019-02-16T05:24:06.213Z,14.20
2019-02-16T05:26:35.545Z,13.93
2019-02-16T05:29:05.653Z,13.83
2019-02-16T05:31:34.826Z,14.35
2019-02-16T05:34:04.006Z,13.38
2019-02-16T05:36:34.797Z,14.68
2019-02-16T05:39:04.769Z,14.83
2019-02-16T05:41:34.031Z,13.65
2019-02-16T05:44:03.211Z,14.53
2019-02-16T05:46:32.479Z,13.60
2019-02-16T05:49:01.731Z,13.88
2019-02-16T05:51:32.542Z,13.28
2019-02-16T05:54:01.730Z,14.23
2019-02-16T05:56:30.955Z,13.45
2019-02-16T05:59:00.178Z,13.65
2019-02-16T06:01:31.009Z,14.70
2019-02-16T06:06:27.761Z,13.40
2019-02-16T06:08:57.012Z,14.50
2019-02-16T06:11:26.199Z,14.10
2019-02-16T06:13:55.426Z,15.70
2019-02-16T06:16:24.631Z,14.65
2019-02-16T06:18:53.922Z,15.25
2019-02-16T06:21:23.167Z,14.00
2019-02-16T06:23:52.598Z,14.58
2019-02-16T06:26:21.762Z,14.07
2019-02-16T06:28:51.026Z,14.80
2019-02-16T06:31:20.210Z,14.03
2019-02-16T06:33:49.478Z,14.65
2019-02-16T06:36:20.373Z,15.53
2019-02-16T06:38:49.546Z,15.07
2019-02-16T06:41:20.194Z,15.08
2019-02-16T06:43:49.447Z,14.55
2019-02-16T06:46:20.306Z,14.87
2019-02-16T06:48:51.282Z,15.17
2019-02-16T06:51:21.895Z,15.40
2019-02-16T06:53:51.086Z,14.85
2019-02-16T06:56:21.884Z,14.17
2019-02-16T06:58:51.075Z,15.83
2019-02-16T07:01:20.264Z,16.37
2019-02-16T07:03:49.440Z,15.00
2019-02-16T07:06:18.711Z,15.10
2019-02-16T07:08:47.898Z,16.37
2019-02-16T07:11:17.206Z,15.32
2019-02-16T07:13:46.500Z,16.40
2019-02-16T07:16:32.265Z,15.28
2019-02-16T07:19:03.096Z,15.45
2019-02-16T07:21:32.407Z,15.35
2019-02-16T07:24:01.613Z,16.00
2019-02-16T07:26:30.877Z,15.04
2019-02-16T07:29:00.058Z,15.32
2019-02-16T07:31:29.229Z,16.25
2019-02-16T07:33:58.387Z,15.32
2019-02-16T07:36:27.661Z,15.00
2019-02-16T07:38:56.879Z,15.35
2019-02-16T07:41:26.134Z,15.00
2019-02-16T07:43:56.944Z,15.48
2019-02-16T07:46:36.627Z,16.53
2019-02-16T07:49:10.245Z,15.23
2019-02-16T07:51:53.118Z,14.60
2019-02-16T07:54:35.978Z,16.17
2019-02-16T07:57:07.154Z,14.75
2019-02-16T07:59:40.516Z,17.00
2019-02-16T08:02:14.051Z,18.35
2019-02-16T08:05:00.933Z,16.25
2019-02-16T08:07:43.629Z,16.82
2019-02-16T08:10:17.343Z,17.15
2019-02-16T08:12:50.616Z,15.48
2019-02-16T08:15:21.684Z,17.13
2019-02-16T08:17:55.334Z,17.17
2019-02-16T08:20:41.320Z,15.88
2019-02-16T08:23:18.093Z,16.48
2019-02-16T08:25:48.958Z,15.50
2019-02-16T08:28:19.793Z,18.10
2019-02-16T08:31:06.924Z,17.48
2019-02-16T08:33:46.533Z,16.85
2019-02-16T08:36:33.480Z,17.73
2019-02-16T08:39:04.314Z,17.52
2019-02-16T08:41:41.295Z,17.27
2019-02-16T08:44:21.053Z,17.67
2019-02-16T08:49:58.715Z,18.85
2019-02-16T08:52:38.418Z,18.27
2019-02-16T08:55:12.224Z,18.95
2019-02-16T08:57:49.232Z,17.65
2019-02-16T09:00:29.362Z,19.50
2019-02-16T09:03:11.342Z,18.07
2019-02-16T09:05:42.214Z,17.90
2019-02-16T09:08:29.605Z,17.62
2019-02-16T09:11:09.308Z,19.23
2019-02-16T09:13:39.905Z,19.42
2019-02-16T09:16:10.777Z,19.60
2019-02-16T09:18:47.772Z,19.97
2019-02-16T09:21:24.221Z,21.10
2019-02-16T09:23:59.021Z,20.90
2019-02-16T09:26:33.828Z,20.17
2019-02-16T09:29:16.632Z,20.50
2019-02-16T09:32:07.762Z,22.10
2019-02-16T09:34:44.545Z,20.80
2019-02-16T09:37:33.675Z,20.20
2019-02-16T09:40:17.100Z,20.97
2019-02-16T09:42:48.036Z,22.65
2019-02-16T09:45:24.670Z,21.33
2019-02-16T09:48:07.634Z,20.62
2019-02-16T09:50:44.344Z,21.27
2019-02-16T09:53:15.165Z,23.00
2019-02-16T09:56:00.810Z,21.37
2019-02-16T09:58:31.642Z,22.87
2019-02-16T10:01:20.145Z,23.98
2019-02-16T10:04:09.077Z,20.50
2019-02-16T10:06:58.712Z,23.22
2019-02-16T10:09:32.530Z,21.82
2019-02-16T10:12:09.107Z,22.22
2019-02-16T10:14:55.229Z,23.70
2019-02-16T10:20:36.604Z,23.45
2019-02-16T10:23:07.417Z,23.32
2019-02-16T10:25:58.386Z,24.00
2019-02-16T10:28:35.433Z,24.83
2019-02-16T10:31:10.537Z,23.38
2019-02-16T10:33:53.397Z,23.30
2019-02-16T10:36:24.233Z,22.93
2019-02-16T10:39:01.001Z,23.22
2019-02-16T10:41:39.147Z,23.15
2019-02-16T10:44:12.689Z,24.27
2019-02-16T10:46:54.513Z,23.18
2019-02-16T10:49:41.457Z,23.42
2019-02-16T10:52:15.102Z,24.85
2019-02-16T10:54:58.263Z,23.52
2019-02-16T10:57:38.089Z,24.43
2019-02-16T11:00:10.038Z,23.27
2019-02-16T11:02:49.725Z,24.95
2019-02-16T11:05:29.674Z,24.53
2019-02-16T11:08:00.506Z,23.98
2019-02-16T11:13:38.032Z,24.98
2019-02-16T11:16:16.047Z,25.17
2019-02-16T11:18:47.012Z,24.72
2019-02-16T11:21:20.620Z,25.43
2019-02-16T11:23:51.450Z,25.20
2019-02-16T11:26:22.276Z,25.70
2019-02-16T11:28:53.191Z,25.00
2019-02-16T11:31:26.990Z,24.70
2019-02-16T11:33:59.044Z,25.37
2019-02-16T11:36:29.914Z,26.05
2019-02-16T11:39:17.375Z,25.43
2019-02-16T11:41:50.939Z,24.32
2019-02-16T11:44:30.933Z,25.02
2019-02-16T11:47:04.597Z,25.77
2019-02-16T11:49:41.119Z,26.27
2019-02-16T11:52:27.129Z,24.60
2019-02-16T11:55:14.351Z,26.27
2019-02-16T11:57:45.294Z,26.75
2019-02-16T12:00:19.096Z,26.87
2019-02-16T12:03:05.976Z,25.85
2019-02-16T12:05:50.443Z,25.85
2019-02-16T12:08:21.357Z,24.25
2019-02-16T12:10:52.243Z,25.13
2019-02-16T12:13:23.149Z,25.50
2019-02-16T12:16:00.059Z,25.77
2019-02-16T12:21:21.338Z,26.73
2019-02-16T12:24:08.280Z,26.87
2019-02-16T12:26:39.095Z,25.45
2019-02-16T12:29:21.784Z,27.05
2019-02-16T12:31:55.252Z,26.35
2019-02-16T12:34:26.196Z,26.07
2019-02-16T12:36:59.570Z,26.40
2019-02-16T12:39:32.849Z,28.35
2019-02-16T12:42:21.903Z,26.10
2019-02-16T12:45:04.519Z,26.73
2019-02-16T12:47:38.287Z,26.97
2019-02-16T12:50:14.898Z,26.93
2019-02-16T12:52:45.748Z,26.15
2019-02-16T12:55:16.610Z,24.55
2019-02-16T12:58:05.836Z,26.50
2019-02-16T13:00:52.668Z,24.15
2019-02-16T13:03:23.564Z,24.60
2019-02-16T13:06:10.732Z,25.23
2019-02-16T13:08:50.815Z,26.70
2019-02-16T13:11:21.739Z,25.95
2019-02-16T13:13:58.428Z,26.60
2019-02-16T13:16:38.379Z,25.72
2019-02-16T13:19:12.281Z,26.25
2019-02-16T13:21:43.224Z,24.70
2019-02-16T13:24:14.137Z,26.65
2019-02-16T13:26:44.984Z,25.05
2019-02-16T13:29:18.617Z,26.23
2019-02-16T13:32:05.625Z,27.05
2019-02-16T13:34:36.519Z,25.30
2019-02-16T13:37:07.458Z,26.40
2019-02-16T13:39:38.315Z,27.80
2019-02-16T13:42:11.607Z,27.50
2019-02-16T13:44:44.981Z,26.48
2019-02-16T13:47:18.880Z,27.55
2019-02-16T13:49:55.468Z,26.80
2019-02-16T13:52:26.281Z,27.17
2019-02-16T13:55:05.765Z,26.48
2019-02-16T13:57:36.680Z,25.88
2019-02-16T14:00:09.547Z,27.20
2019-02-16T14:02:40.562Z,26.55
2019-02-16T14:05:11.392Z,25.37
2019-02-16T14:07:58.341Z,27.20
2019-02-16T14:10:45.790Z,26.12
2019-02-16T14:13:32.977Z,26.05
2019-02-16T14:16:16.052Z,27.15
2019-02-16T14:18:45.222Z,25.40
2019-02-16T14:21:14.773Z,26.90
2019-02-16T14:23:43.977Z,27.10
2019-02-16T14:26:13.218Z,25.52
2019-02-16T14:28:42.409Z,28.02
2019-02-16T14:31:13.088Z,27.45
2019-02-16T14:33:42.257Z,26.67
2019-02-16T14:36:11.572Z,28.10
2019-02-16T14:38:42.481Z,27.62
2019-02-16T14:41:11.773Z,26.57
2019-02-16T14:43:41.101Z,26.23
2019-02-16T14:46:10.410Z,27.28
2019-02-16T14:48:39.641Z,26.42
2019-02-16T14:51:08.822Z,27.82
2019-02-16T14:53:38.134Z,25.85
2019-02-16T14:56:07.382Z,27.02
2019-02-16T14:58:36.541Z,24.00
2019-02-16T15:01:05.749Z,25.25
2019-02-16T15:03:35.049Z,25.60
2019-02-16T15:06:05.199Z,26.23
2019-02-16T15:08:34.467Z,24.52
2019-02-16T15:11:03.660Z,26.30
2019-02-16T15:13:32.940Z,26.57
2019-02-16T15:16:02.194Z,28.10
2019-02-16T15:18:32.446Z,26.60
2019-02-16T15:21:01.625Z,27.40
2019-02-16T15:23:30.889Z,27.50
2019-02-16T15:26:01.339Z,28.20
2019-02-16T15:28:30.879Z,27.27
2019-02-16T15:31:00.294Z,25.37
2019-02-16T15:33:29.467Z,25.27
2019-02-16T15:35:58.675Z,25.90
2019-02-16T15:38:27.929Z,26.52
2019-02-16T15:40:57.201Z,26.50
2019-02-16T15:43:26.395Z,26.75
2019-02-16T15:45:55.724Z,28.23
2019-02-16T15:48:25.022Z,27.60
2019-02-16T15:50:54.213Z,27.35
2019-02-16T15:53:23.415Z,27.47
2019-02-16T15:55:52.634Z,27.35
2019-02-16T15:58:21.912Z,27.22
2019-02-16T16:00:51.212Z,27.20
2019-02-16T16:03:23.091Z,28.00
2019-02-16T16:05:52.285Z,27.55
2019-02-16T16:08:25.881Z,27.90
2019-02-16T16:10:56.879Z,27.87
2019-02-16T16:13:43.807Z,27.90
2019-02-16T16:16:20.639Z,27.73
2019-02-16T16:18:51.483Z,28.98
2019-02-16T16:21:25.365Z,29.00
2019-02-16T16:23:58.968Z,29.02
2019-02-16T16:26:46.197Z,30.08
2019-02-16T16:29:25.845Z,28.32
2019-02-16T16:31:59.371Z,29.70
2019-02-16T16:34:45.041Z,30.23
2019-02-16T16:37:21.327Z,28.80
2019-02-16T16:39:55.075Z,28.57
2019-02-16T16:42:38.182Z,27.98
2019-02-16T16:45:18.407Z,28.73
2019-02-16T16:47:49.234Z,28.57
2019-02-16T16:50:22.870Z,28.95
2019-02-16T16:52:59.365Z,29.45
2019-02-16T16:55:36.043Z,29.02
2019-02-16T16:58:25.932Z,28.98
2019-02-16T17:03:53.541Z,29.42
2019-02-16T17:06:24.405Z,29.13
2019-02-16T17:08:55.220Z,29.67
2019-02-16T17:11:29.066Z,30.05
2019-02-16T17:13:59.987Z,30.68
2019-02-16T17:16:33.706Z,31.40
2019-02-16T17:19:10.362Z,32.55
2019-02-16T17:22:02.804Z,32.20
2019-02-16T17:24:51.343Z,33.35
2019-02-16T17:27:22.239Z,32.80
2019-02-16T17:29:53.137Z,33.15
2019-02-16T17:32:38.870Z,32.53
2019-02-16T17:35:09.767Z,32.40
2019-02-16T17:37:40.658Z,31.83
2019-02-16T17:40:27.751Z,32.78
2019-02-16T17:43:01.614Z,33.28
2019-02-16T17:45:35.004Z,32.58
2019-02-16T17:48:18.093Z,32.60
2019-02-16T17:50:48.928Z,32.80
2019-02-16T17:53:34.896Z,31.43
2019-02-16T17:56:08.525Z,33.67
2019-02-16T17:58:39.385Z,35.55
2019-02-16T18:01:22.186Z,35.60
2019-02-16T18:04:09.417Z,35.60
2019-02-16T18:06:40.441Z,43.75
2019-02-16T18:09:17.243Z,50.48
2019-02-16T18:11:54.082Z,46.42
2019-02-16T18:14:30.722Z,42.20
2019-02-16T18:17:05.086Z,42.05
2019-02-16T18:19:35.982Z,43.92
2019-02-16T18:25:07.697Z,44.45
2019-02-16T18:27:44.388Z,40.90
2019-02-16T18:30:30.273Z,38.33
2019-02-16T18:33:10.067Z,40.90
2019-02-16T18:35:46.611Z,38.23
2019-02-16T18:38:17.565Z,37.95
2019-02-16T18:40:51.036Z,38.07
2019-02-16T18:43:30.971Z,36.40
2019-02-16T18:46:02.088Z,36.23
2019-02-16T18:48:35.520Z,36.00
2019-02-16T18:54:04.343Z,37.80
2019-02-16T18:56:53.346Z,40.00
2019-02-16T18:59:40.796Z,37.15
2019-02-16T19:02:14.659Z,39.50
2019-02-16T19:04:45.564Z,37.17
2019-02-16T19:07:19.130Z,38.00
2019-02-16T19:09:49.981Z,37.28
2019-02-16T19:12:20.825Z,37.13
2019-02-16T19:15:10.069Z,36.98
2019-02-16T19:17:43.754Z,36.53
2019-02-16T19:20:14.601Z,40.73
2019-02-16T19:22:48.268Z,39.03
2019-02-16T19:28:24.985Z,39.13
2019-02-16T19:31:13.002Z,38.15
2019-02-16T19:33:56.018Z,38.42
2019-02-16T19:36:29.444Z,37.98
2019-02-16T19:39:16.745Z,37.50
2019-02-16T19:41:47.559Z,37.45
2019-02-16T19:44:27.408Z,39.70
2019-02-16T19:47:04.356Z,36.83
2019-02-16T19:49:50.450Z,37.95
2019-02-16T19:52:27.069Z,36.13
2019-02-16T19:54:57.913Z,36.20
2019-02-16T19:57:31.561Z,35.68
2019-02-16T20:00:18.929Z,38.20
2019-02-16T20:02:58.880Z,35.95
2019-02-16T20:05:29.792Z,37.58
2019-02-16T20:08:00.708Z,37.08
2019-02-16T20:10:34.250Z,36.48
2019-02-16T20:13:14.076Z,37.70
2019-02-16T20:16:01.186Z,36.90
2019-02-16T20:18:32.105Z,37.25
2019-02-16T20:21:11.793Z,38.90
2019-02-16T20:23:48.315Z,39.30
2019-02-16T20:26:30.945Z,38.35
2019-02-16T20:29:13.937Z,42.60
2019-02-16T20:31:47.534Z,42.88
2019-02-16T20:34:34.841Z,40.28
2019-02-16T20:37:31.403Z,41.88
2019-02-16T20:40:02.254Z,40.75
2019-02-16T20:42:34.185Z,41.60
2019-02-16T20:45:19.355Z,42.20
2019-02-16T20:47:50.515Z,41.33
2019-02-16T20:50:24.247Z,42.30
2019-02-16T20:53:12.869Z,41.75
2019-02-16T20:55:54.416Z,43.20
2019-02-16T20:58:41.596Z,42.88
2019-02-16T21:01:12.565Z,42.70
2019-02-16T21:03:43.460Z,42.40
2019-02-16T21:06:27.297Z,42.10
2019-02-16T21:09:05.660Z,41.70
2019-02-16T21:11:38.139Z,41.70
2019-02-16T21:14:22.709Z,41.87
2019-02-16T21:16:56.482Z,42.50
2019-02-16T21:19:36.625Z,40.63
2019-02-16T21:22:14.586Z,41.27
2019-02-16T21:24:49.663Z,40.78
2019-02-16T21:27:29.485Z,42.85
2019-02-16T21:30:18.408Z,43.23
2019-02-16T21:32:58.999Z,44.73
2019-02-16T21:35:34.030Z,45.63
2019-02-16T21:38:10.773Z,44.55
2019-02-16T21:40:45.811Z,44.50
2019-02-16T21:43:27.307Z,44.05
2019-02-16T21:46:01.095Z,48.43
2019-02-16T21:48:44.190Z,43.40
2019-02-16T21:51:20.851Z,46.60
2019-02-16T21:54:06.877Z,45.03
2019-02-16T21:56:43.873Z,46.60
2019-02-16T21:59:26.719Z,45.87
2019-02-16T22:02:09.647Z,46.98
2019-02-16T22:04:56.857Z,44.77
2019-02-16T22:07:44.116Z,45.67
2019-02-16T22:10:14.962Z,44.23
2019-02-16T22:12:45.855Z,44.33
2019-02-16T22:15:15.108Z,44.70
2019-02-16T22:17:44.356Z,46.02
2019-02-16T22:20:13.522Z,44.65
2019-02-16T22:22:42.735Z,42.25
2019-02-16T22:25:11.988Z,39.38
2019-02-16T22:27:41.248Z,39.18
2019-02-16T22:30:12.529Z,38.87
2019-02-16T22:32:41.711Z,40.87
2019-02-16T22:35:10.908Z,38.38
2019-02-16T22:37:40.184Z,41.02
2019-02-16T22:40:09.368Z,39.08
2019-02-16T22:42:38.596Z,41.73
2019-02-16T22:45:10.423Z,40.03
2019-02-16T22:47:39.599Z,41.63
2019-02-16T22:50:10.437Z,38.35
2019-02-16T22:52:39.616Z,40.07
2019-02-16T22:55:10.948Z,40.23
2019-02-16T22:57:40.123Z,40.37
2019-02-16T23:00:13.267Z,40.20
2019-02-16T23:02:44.059Z,38.20
2019-02-16T23:05:13.258Z,37.33
2019-02-16T23:07:42.566Z,38.98
2019-02-16T23:10:12.014Z,39.50
2019-02-16T23:12:41.494Z,39.85
2019-02-16T23:15:11.000Z,37.35
2019-02-16T23:17:40.290Z,39.35
2019-02-16T23:20:11.306Z,39.05
2019-02-16T23:22:40.498Z,38.03
2019-02-16T23:25:09.695Z,38.10
2019-02-16T23:27:38.898Z,39.45
2019-02-16T23:30:10.509Z,38.25
2019-02-16T23:32:40.734Z,40.08
2019-02-16T23:35:09.950Z,37.10
2019-02-16T23:37:39.192Z,38.25
2019-02-16T23:40:08.629Z,37.38
2019-02-16T23:42:37.809Z,39.13
2019-02-16T23:45:08.926Z,38.63
2019-02-16T23:47:38.117Z,38.65
2019-02-16T23:50:09.672Z,37.33
2019-02-16T23:52:38.913Z,39.98
2019-02-16T23:55:11.260Z,36.40
2019-02-16T23:57:40.445Z,40.38
